Time;durP1;ratioP1;P1;durP2;ratioP2;P2;SDS_P1;SDS_P2;PMS_P1;PMS_P2;Temp;Humidity;BMP_temperature;BMP_pressure;BME280_temperature;BME280_humidity;BME280_pressure;Samples;Min_cycle;Max_cycle;Signal;HPM_P1;HPM_P2
2023/12/11 00:01:35;;;;;;;0.20;0.20;;;;;;;4.34;76.26;101460.75;5037061;28;20033;-88
2023/12/11 00:04:00;;;;;;;0.20;0.20;;;;;;;4.45;76.06;101489.69;5036863;28;20490;-88
2023/12/11 00:06:26;;;;;;;0.20;0.20;;;;;;;4.44;75.95;101488.84;5036370;28;20063;-88
2023/12/11 00:08:51;;;;;;;0.20;0.20;;;;;;;4.42;76.01;101490.53;5020226;28;20404;-88
2023/12/11 00:11:17;;;;;;;0.20;0.20;;;;;;;4.38;76.16;101478.63;5053245;28;20116;-87
2023/12/11 00:13:42;;;;;;;0.20;0.20;;;;;;;4.44;76.27;101496.53;5036347;28;20036;-87
2023/12/11 00:16:08;;;;;;;0.20;0.20;;;;;;;4.43;76.39;101481.16;5053956;28;20052;-87
2023/12/11 00:18:34;;;;;;;0.20;0.20;;;;;;;4.51;76.28;101484.47;5036663;28;20028;-87
2023/12/11 00:21:00;;;;;;;0.20;0.20;;;;;;;4.51;76.08;101494.72;5052743;28;20467;-87
2023/12/11 00:23:26;;;;;;;0.20;0.20;;;;;;;4.60;75.70;101484.38;5036547;28;20024;-88
2023/12/11 00:25:52;;;;;;;0.20;0.20;;;;;;;4.59;74.93;101482.69;5036464;28;20025;-87
2023/12/11 00:28:17;;;;;;;0.20;0.20;;;;;;;4.51;75.21;101489.59;5052837;28;20123;-87
2023/12/11 00:30:43;;;;;;;0.20;0.20;;;;;;;4.55;75.10;101486.16;5052625;28;20036;-87
2023/12/11 00:33:08;;;;;;;0.20;0.20;;;;;;;4.52;75.70;101481.94;5036245;28;20025;-87
2023/12/11 00:35:34;;;;;;;0.20;0.20;;;;;;;4.55;76.05;101506.66;5019465;28;20047;-87
2023/12/11 00:37:59;;;;;;;0.20;0.20;;;;;;;4.54;75.66;101484.47;5019596;28;20033;-86
2023/12/11 00:40:25;;;;;;;0.20;0.20;;;;;;;4.57;76.08;101484.44;5052561;28;20078;-87
2023/12/11 00:42:51;;;;;;;0.20;0.20;;;;;;;4.52;75.82;101484.50;5036141;28;20057;-88
2023/12/11 00:45:16;;;;;;;0.20;0.20;;;;;;;4.54;75.92;101489.59;5036048;28;20414;-88
2023/12/11 00:47:42;;;;;;;0.20;0.20;;;;;;;4.53;76.49;101498.16;5052673;28;20100;-87
2023/12/11 00:50:07;;;;;;;0.20;0.20;;;;;;;4.57;76.48;101500.66;5052263;28;20029;-89
2023/12/11 00:52:33;;;;;;;0.20;0.20;;;;;;;4.53;76.17;101499.00;5019474;28;20032;-88
2023/12/11 00:54:59;;;;;;;0.10;0.10;;;;;;;4.54;76.40;101492.16;5035846;28;20033;-87
2023/12/11 00:57:24;;;;;;;0.20;0.20;;;;;;;4.60;75.88;101497.19;5052490;28;20112;-87
2023/12/11 00:59:50;;;;;;;0.20;0.20;;;;;;;4.53;75.71;101488.75;5052051;28;20033;-87
2023/12/11 01:02:17;;;;;;;0.20;0.20;;;;;;;4.62;75.76;101498.03;5052720;28;20025;-87
2023/12/11 01:04:43;;;;;;;0.20;0.20;;;;;;;4.55;76.23;101498.97;5019074;28;20036;-88
2023/12/11 01:07:09;;;;;;;0.20;0.20;;;;;;;4.51;76.93;101484.47;5052305;28;20067;-88
2023/12/11 01:09:34;;;;;;;0.20;0.20;;;;;;;4.60;76.33;101489.50;5051863;28;20040;-88
2023/12/11 01:12:00;;;;;;;0.20;0.20;;;;;;;4.63;76.33;101479.25;5018955;28;20063;-88
2023/12/11 01:14:25;;;;;;;0.20;0.20;;;;;;;4.69;76.14;101479.16;5035595;28;20040;-87
2023/12/11 01:16:51;;;;;;;0.10;0.10;;;;;;;4.59;75.88;101480.97;5051791;28;20053;-87
2023/12/11 01:19:16;;;;;;;0.10;0.10;;;;;;;4.53;76.13;101472.53;5051651;28;20021;-88
2023/12/11 01:21:42;;;;;;;0.15;0.15;;;;;;;4.56;76.06;101480.16;5035695;28;20033;-88
2023/12/11 01:24:08;;;;;;;0.20;0.20;;;;;;;4.56;76.65;101488.72;5035414;28;20028;-88
2023/12/11 01:26:33;;;;;;;0.20;0.20;;;;;;;4.60;76.68;101476.69;5035358;28;20025;-89
2023/12/11 01:28:59;;;;;;;0.20;0.20;;;;;;;4.51;76.21;101469.09;5035151;28;20032;-88
2023/12/11 01:31:24;;;;;;;0.20;0.20;;;;;;;4.52;76.48;101479.38;5035093;28;20037;-88
2023/12/11 01:33:50;;;;;;;0.20;0.20;;;;;;;4.59;75.66;101472.44;5034654;28;20068;-87
2023/12/11 01:36:15;;;;;;;0.20;0.20;;;;;;;4.42;76.36;101464.06;5051608;28;20033;-88
2023/12/11 01:38:41;;;;;;;0.20;0.20;;;;;;;4.44;76.97;101467.50;5051499;28;20025;-86
2023/12/11 01:41:06;;;;;;;0.20;0.20;;;;;;;4.39;77.17;101462.41;5051295;28;20036;-86
2023/12/11 01:43:32;;;;;;;0.20;0.20;;;;;;;4.55;76.50;101465.66;5051551;28;20029;-87
2023/12/11 01:46:00;;;;;;;0.20;0.20;;;;;;;4.53;76.30;101469.97;5051810;28;20112;-88
2023/12/11 01:48:26;;;;;;;0.20;0.20;;;;;;;4.37;76.77;101453.03;5052736;28;20402;-88
2023/12/11 01:50:51;;;;;;;0.20;0.20;;;;;;;4.46;76.40;101460.63;5034961;28;20519;-88
2023/12/11 01:53:17;;;;;;;0.20;0.20;;;;;;;4.39;76.51;101448.75;5051410;28;20435;-87
2023/12/11 01:55:43;;;;;;;0.10;0.10;;;;;;;4.36;77.07;101439.38;5051347;28;20021;-88
2023/12/11 01:58:08;;;;;;;0.20;0.20;;;;;;;4.55;76.07;101443.44;5051346;28;20025;-88
2023/12/11 02:00:34;;;;;;;0.10;0.10;;;;;;;4.50;76.05;101442.63;5017965;28;20064;-87
2023/12/11 02:02:59;;;;;;;0.20;0.20;;;;;;;4.51;76.51;101443.47;5017793;28;20032;-88
2023/12/11 02:05:25;;;;;;;0.20;0.20;;;;;;;4.47;76.27;101442.69;5034361;28;20028;-88
2023/12/11 02:07:50;;;;;;;0.20;0.20;;;;;;;4.47;75.83;101431.56;5034555;28;20447;-87
2023/12/11 02:10:16;;;;;;;0.20;0.20;;;;;;;4.36;76.74;101438.53;5051410;28;20051;-88
2023/12/11 02:12:41;;;;;;;0.20;0.20;;;;;;;4.33;77.14;101439.44;5034434;28;20063;-88
2023/12/11 02:15:07;;;;;;;0.20;0.20;;;;;;;4.34;76.93;101437.72;5034306;28;20495;-87
2023/12/11 02:17:33;;;;;;;0.20;0.20;;;;;;;4.28;77.25;101431.78;5050444;28;20060;-89
2023/12/11 02:19:59;;;;;;;0.20;0.20;;;;;;;4.39;77.09;101428.25;5034132;28;20036;-88
2023/12/11 02:22:24;;;;;;;0.20;0.20;;;;;;;4.52;76.59;101429.78;5050372;28;20174;-88
2023/12/11 02:24:52;;;;;;;0.20;0.20;;;;;;;4.41;76.80;101416.25;5017653;28;20028;-87
2023/12/11 02:27:18;;;;;;;0.20;0.20;;;;;;;4.43;76.93;101422.25;5034510;28;20506;-87
2023/12/11 02:29:43;;;;;;;0.20;0.20;;;;;;;4.32;77.00;101410.38;5033893;28;20025;-87
2023/12/11 02:32:09;;;;;;;0.20;0.20;;;;;;;4.34;76.94;101424.91;5051267;28;20021;-87
2023/12/11 02:34:34;;;;;;;0.20;0.20;;;;;;;4.23;77.34;101413.06;5051913;28;20025;-88
2023/12/11 02:37:00;;;;;;;0.20;0.20;;;;;;;4.31;77.30;101411.22;5050402;28;20065;-87
2023/12/11 02:39:26;;;;;;;0.20;0.20;;;;;;;4.30;77.32;101409.53;5050470;28;20032;-87
2023/12/11 02:41:51;;;;;;;0.20;0.20;;;;;;;4.41;76.95;101411.13;5050388;28;20025;-87
2023/12/11 02:44:17;;;;;;;0.20;0.20;;;;;;;4.31;77.37;101393.31;5033893;28;20025;-86
2023/12/11 02:46:42;;;;;;;0.20;0.20;;;;;;;4.32;77.27;101396.72;5033502;28;20064;-87
2023/12/11 02:49:08;;;;;;;0.20;0.20;;;;;;;4.27;77.73;101412.16;5017274;28;20028;-87
2023/12/11 02:51:33;;;;;;;0.20;0.20;;;;;;;4.31;77.60;101415.50;5050263;28;20025;-87
2023/12/11 02:53:59;;;;;;;0.20;0.20;;;;;;;4.39;77.37;101406.03;5050163;28;20032;-88
2023/12/11 02:56:24;;;;;;;0.20;0.20;;;;;;;4.29;76.96;101407.84;5033493;28;20057;-87
2023/12/11 02:58:50;;;;;;;0.20;0.20;;;;;;;4.21;77.14;101394.28;5050113;28;20029;-87
2023/12/11 03:01:16;;;;;;;0.20;0.20;;;;;;;4.26;77.02;101396.78;5033192;28;20060;-87
2023/12/11 03:03:41;;;;;;;0.20;0.20;;;;;;;4.14;77.02;101379.84;5033544;28;20044;-88
2023/12/11 03:06:08;;;;;;;0.20;0.20;;;;;;;4.30;76.91;101408.69;5049740;28;20029;-88
2023/12/11 03:08:36;;;;;;;0.20;0.20;;;;;;;4.15;77.19;101399.47;5033515;28;20025;-88
2023/12/11 03:11:02;;;;;;;0.20;0.20;;;;;;;4.20;77.56;101417.34;5033451;28;20024;-87
2023/12/11 03:13:27;;;;;;;0.20;0.20;;;;;;;4.22;77.46;101419.00;5049965;28;20449;-88
2023/12/11 03:15:53;;;;;;;0.20;0.20;;;;;;;4.25;77.72;101416.44;5032660;28;20519;-87
2023/12/11 03:18:18;;;;;;;0.20;0.20;;;;;;;4.10;77.58;101396.09;5049815;28;20024;-87
2023/12/11 03:20:44;;;;;;;0.20;0.20;;;;;;;4.24;77.88;101419.03;5049728;28;20028;-87
2023/12/11 03:23:09;;;;;;;0.20;0.20;;;;;;;4.23;77.59;101407.09;5049780;28;20020;-88
2023/12/11 03:25:35;;;;;;;0.20;0.20;;;;;;;4.32;77.52;101407.81;5049774;28;20114;-88
2023/12/11 03:28:00;;;;;;;0.20;0.20;;;;;;;4.33;77.02;101413.81;5016542;28;20033;-87
2023/12/11 03:30:26;;;;;;;0.10;0.10;;;;;;;4.37;76.80;101409.50;5032554;28;20040;-87
2023/12/11 03:32:52;;;;;;;0.20;0.20;;;;;;;4.35;77.31;101409.50;5048468;28;20478;-89
2023/12/11 03:35:17;;;;;;;0.20;0.20;;;;;;;4.39;77.47;101407.75;5033139;28;20451;-87
2023/12/11 03:37:43;;;;;;;0.20;0.20;;;;;;;4.37;77.09;101394.13;5049572;28;20518;-87
2023/12/11 03:40:09;;;;;;;0.20;0.20;;;;;;;4.36;76.81;101402.66;5032864;28;20025;-88
2023/12/11 03:42:34;;;;;;;0.20;0.20;;;;;;;4.40;76.64;101415.41;5049472;28;20045;-87
2023/12/11 03:45:00;;;;;;;0.20;0.20;;;;;;;4.35;76.90;101406.09;5048842;28;20053;-87
2023/12/11 03:47:25;;;;;;;0.20;0.20;;;;;;;4.18;77.02;101396.88;5032737;28;20487;-87
2023/12/11 03:49:51;;;;;;;0.20;0.20;;;;;;;4.28;76.66;101411.28;5049440;28;20449;-88
2023/12/11 03:52:17;;;;;;;0.10;0.10;;;;;;;4.21;76.29;101412.19;5049408;28;20025;-88
2023/12/11 03:54:42;;;;;;;0.20;0.20;;;;;;;4.17;76.43;101418.22;5032529;28;20117;-87
2023/12/11 03:57:08;;;;;;;0.10;0.10;;;;;;;4.39;77.97;101410.31;5016470;28;20040;-90
2023/12/11 03:59:33;;;;;;;0.20;0.20;;;;;;;4.50;76.40;101418.72;5049430;28;20036;-90
2023/12/11 04:01:59;;;;;;;0.20;0.20;;;;;;;4.48;74.71;101417.91;5049657;28;20025;-90
2023/12/11 04:04:25;;;;;;;0.20;0.20;;;;;;;4.58;74.31;101414.38;5049536;28;20558;-90
2023/12/11 04:06:50;;;;;;;0.20;0.20;;;;;;;4.72;74.32;101409.06;5032911;28;20021;-87
2023/12/11 04:09:16;;;;;;;0.20;0.20;;;;;;;4.59;73.81;101416.06;5032630;28;20028;-88
2023/12/11 04:11:43;;;;;;;0.10;0.10;;;;;;;4.30;74.25;101386.50;5048909;28;20029;-87
2023/12/11 04:14:08;;;;;;;0.20;0.20;;;;;;;4.43;74.23;101404.31;5032327;28;20025;-87
2023/12/11 04:16:34;;;;;;;0.20;0.20;;;;;;;4.40;74.20;101412.00;5032458;28;20083;-88
2023/12/11 04:18:59;;;;;;;0.20;0.20;;;;;;;4.23;74.71;101415.63;5049077;28;20054;-87
2023/12/11 04:21:25;;;;;;;0.20;0.20;;;;;;;4.06;75.03;101404.69;5032445;28;20395;-87
2023/12/11 04:23:51;;;;;;;0.20;0.20;;;;;;;4.13;74.71;101411.44;5049137;28;20025;-88
2023/12/11 04:26:16;;;;;;;0.20;0.20;;;;;;;4.01;75.39;101422.63;5049182;28;20036;-87
2023/12/11 04:28:42;;;;;;;0.20;0.20;;;;;;;3.95;75.53;101427.81;5049056;28;20029;-87
2023/12/11 04:31:07;;;;;;;0.20;0.20;;;;;;;3.74;76.06;101410.09;5032502;28;20033;-87
2023/12/11 04:33:37;;;;;;;0.20;0.20;;;;;;;3.76;76.09;101417.75;5048928;28;20033;-87
2023/12/11 04:36:07;;;;;;;0.20;0.20;;;;;;;3.63;76.03;101410.16;5049137;28;20039;-87
2023/12/11 04:38:32;;;;;;;0.20;0.20;;;;;;;3.42;76.58;101379.63;5051802;28;20013;-85
2023/12/11 04:40:58;;;;;;;0.20;0.20;;;;;;;3.46;76.73;101406.91;5049836;28;20064;-87
2023/12/11 04:43:23;;;;;;;0.20;0.20;;;;;;;3.46;76.38;101406.91;5048364;28;20029;-87
2023/12/11 04:45:49;;;;;;;0.10;0.10;;;;;;;3.50;75.89;101421.34;5053780;28;20155;-89
2023/12/11 04:48:15;;;;;;;0.20;0.20;;;;;;;3.36;76.65;101410.38;5052209;28;20087;-88
2023/12/11 04:50:40;;;;;;;0.20;0.20;;;;;;;3.21;77.00;101401.09;5035828;28;20109;-88
2023/12/11 04:53:06;;;;;;;0.10;0.10;;;;;;;3.30;76.59;101423.19;5035606;28;20029;-89
2023/12/11 04:55:32;;;;;;;0.20;0.20;;;;;;;3.25;76.67;101430.06;5052224;28;20044;-88
2023/12/11 04:57:58;;;;;;;0.10;0.10;;;;;;;3.12;76.81;101430.09;5052230;28;20029;-87
2023/12/11 05:00:23;;;;;;;0.20;0.20;;;;;;;3.12;77.51;101426.72;5051699;28;20032;-88
2023/12/11 05:02:49;;;;;;;0.20;0.20;;;;;;;3.13;77.80;101433.50;5052113;28;20021;-86
2023/12/11 05:05:16;;;;;;;0.20;0.20;;;;;;;3.07;77.72;101423.34;5052319;28;20483;-88
2023/12/11 05:07:42;;;;;;;0.10;0.10;;;;;;;3.04;77.32;101420.78;5035852;28;20463;-86
2023/12/11 05:10:08;;;;;;;0.10;0.10;;;;;;;3.08;77.81;101441.22;5053069;28;20517;-88
2023/12/11 05:12:33;;;;;;;0.20;0.20;;;;;;;3.05;77.95;101446.38;5036157;28;20028;-86
2023/12/11 05:15:01;;;;;;;0.10;0.10;;;;;;;3.04;77.75;101433.56;5056614;28;20052;-87
2023/12/11 05:17:27;;;;;;;0.10;0.10;;;;;;;3.04;78.09;101433.56;5059634;28;20642;-85
2023/12/11 05:19:52;;;;;;;0.10;0.10;;;;;;;3.07;77.90;101446.34;5071889;28;20028;-83
2023/12/11 05:22:18;;;;;;;0.20;0.20;;;;;;;2.97;78.37;101437.88;5055222;28;20036;-92
2023/12/11 05:24:44;;;;;;;0.20;0.20;;;;;;;2.87;78.01;101411.50;5068590;28;20024;-87
2023/12/11 05:27:11;;;;;;;0.20;0.20;;;;;;;2.91;78.16;101452.38;5067357;28;20083;-87
2023/12/11 05:29:36;;;;;;;0.10;0.10;;;;;;;2.82;78.59;101445.59;5051749;28;20043;-83
2023/12/11 05:32:02;;;;;;;0.20;0.20;;;;;;;2.81;78.53;101447.31;5062204;28;20036;-85
2023/12/11 05:34:28;;;;;;;0.20;0.20;;;;;;;2.66;78.63;101421.81;5071338;28;20074;-89
2023/12/11 05:36:53;;;;;;;0.20;0.20;;;;;;;2.85;78.34;101460.91;5049579;28;20537;-90
2023/12/11 05:39:19;;;;;;;0.20;0.20;;;;;;;2.77;78.11;101445.63;5071033;28;20028;-87
2023/12/11 05:41:45;;;;;;;0.20;0.20;;;;;;;2.79;78.23;101453.28;5058656;28;20016;-86
2023/12/11 05:44:10;;;;;;;0.20;0.20;;;;;;;2.67;78.59;101432.91;5088148;28;20482;-89
2023/12/11 05:46:36;;;;;;;0.20;0.20;;;;;;;2.79;78.90;101454.13;5071793;28;20028;-85
2023/12/11 05:49:01;;;;;;;0.20;0.20;;;;;;;2.79;79.01;101443.06;5068119;28;20036;-87
2023/12/11 05:51:28;;;;;;;0.20;0.20;;;;;;;2.75;79.17;101452.44;5054361;28;20032;-87
2023/12/11 05:53:55;;;;;;;0.20;0.20;;;;;;;2.71;79.01;101455.00;5037144;28;20061;-91
2023/12/11 05:56:21;;;;;;;0.20;0.20;;;;;;;2.67;78.61;101432.91;5065077;28;20056;-84
2023/12/11 05:58:47;;;;;;;0.20;0.20;;;;;;;2.51;78.65;101422.72;5066422;28;20108;-85
2023/12/11 06:01:12;;;;;;;0.10;0.10;;;;;;;2.56;78.36;101441.44;5038094;28;20031;-84
2023/12/11 06:03:38;;;;;;;0.10;0.10;;;;;;;2.67;78.30;101459.28;5065681;28;20498;-91
2023/12/11 06:06:04;;;;;;;0.20;0.20;;;;;;;2.53;78.69;101443.97;5049225;28;20086;-86
2023/12/11 06:08:29;;;;;;;0.20;0.20;;;;;;;2.66;78.28;101470.38;5071627;28;20116;-91
2023/12/11 06:10:55;;;;;;;0.20;0.20;;;;;;;2.64;79.15;101459.28;5049201;28;20074;-88
2023/12/11 06:13:20;;;;;;;0.20;0.20;;;;;;;2.70;78.28;101474.59;5069239;28;20598;-92
2023/12/11 06:15:46;;;;;;;0.20;0.20;;;;;;;2.63;78.96;101466.94;5059109;28;20080;-87
2023/12/11 06:18:11;;;;;;;0.20;0.20;;;;;;;2.58;79.25;101470.38;5033602;28;20051;-92
2023/12/11 06:20:37;;;;;;;0.20;0.20;;;;;;;2.37;79.69;101428.72;5082407;28;20066;-86
2023/12/11 06:23:03;;;;;;;0.20;0.20;;;;;;;2.53;79.98;101451.66;5071003;28;20409;-87
2023/12/11 06:25:28;;;;;;;0.20;0.20;;;;;;;2.62;79.42;101466.09;5067893;28;20114;-87
2023/12/11 06:27:54;;;;;;;0.20;0.20;;;;;;;2.61;79.66;101463.56;5063765;28;20021;-92
2023/12/11 06:30:20;;;;;;;0.20;0.20;;;;;;;2.56;79.66;101459.31;5047464;28;20084;-87
2023/12/11 06:32:46;;;;;;;0.20;0.20;;;;;;;2.59;79.57;101477.19;5068140;28;20024;-91
2023/12/11 06:35:11;;;;;;;0.20;0.20;;;;;;;2.72;79.15;101482.25;5064799;28;20037;-93
2023/12/11 06:37:37;;;;;;;0.20;0.20;;;;;;;2.66;78.85;101466.97;5043958;28;20021;-91
2023/12/11 06:40:05;;;;;;;0.20;0.20;;;;;;;2.80;78.80;101486.50;5051766;28;20545;-92
2023/12/11 06:42:37;;;;;;;0.20;0.20;;;;;;;2.82;78.21;101489.03;5063668;28;20033;-89
2023/12/11 06:45:03;;;;;;;0.20;0.20;;;;;;;2.75;78.95;101487.34;5059452;28;20035;-91
2023/12/11 06:47:29;;;;;;;0.10;0.10;;;;;;;2.71;79.82;101490.78;5064183;28;20029;-91
2023/12/11 06:49:54;;;;;;;0.20;0.20;;;;;;;2.79;80.09;101492.47;5064757;28;20036;-91
2023/12/11 06:52:20;;;;;;;0.10;0.10;;;;;;;2.81;80.10;101495.84;5042933;28;20021;-89
2023/12/11 06:54:45;;;;;;;0.20;0.20;;;;;;;2.80;79.94;101477.97;5027917;28;20064;-88
2023/12/11 06:57:11;;;;;;;0.10;0.10;;;;;;;3.01;79.47;101507.72;5058786;28;20025;-91
2023/12/11 06:59:37;;;;;;;0.20;0.20;;;;;;;2.97;79.51;101509.44;5048773;28;20495;-88
2023/12/11 07:02:03;;;;;;;0.10;0.10;;;;;;;2.98;79.84;101511.16;5064416;28;20032;-84
2023/12/11 07:04:28;;;;;;;0.20;0.20;;;;;;;3.02;79.89;101497.47;5059219;28;20043;-88
2023/12/11 07:06:54;;;;;;;0.10;0.10;;;;;;;3.18;79.46;101488.06;5051913;28;20025;-91
2023/12/11 07:09:19;;;;;;;0.20;0.20;;;;;;;3.25;79.44;101499.13;5071816;28;20033;-90
2023/12/11 07:11:45;;;;;;;0.20;0.20;;;;;;;3.27;79.67;101476.94;5060619;28;20028;-86
2023/12/11 07:14:10;;;;;;;0.20;0.20;;;;;;;3.31;79.60;101476.88;5059341;28;20474;-88
2023/12/11 07:16:36;;;;;;;0.20;0.20;;;;;;;3.25;79.73;101476.09;5051423;28;20048;-86
2023/12/11 07:19:03;;;;;;;0.13;0.13;;;;;;;3.36;79.96;101480.28;5057099;28;20029;-91
2023/12/11 07:21:29;;;;;;;0.20;0.20;;;;;;;3.33;80.50;101487.09;5049631;28;20033;-87
2023/12/11 07:23:55;;;;;;;0.20;0.20;;;;;;;3.36;80.63;101474.31;5035487;28;20021;-87
2023/12/11 07:26:20;;;;;;;0.20;0.20;;;;;;;3.37;80.07;101470.91;5068895;28;20031;-92
2023/12/11 07:28:46;;;;;;;0.20;0.20;;;;;;;3.42;80.96;101481.94;5069118;28;20032;-91
2023/12/11 07:31:11;;;;;;;0.20;0.20;;;;;;;3.35;82.15;101477.75;5069350;28;20023;-90
2023/12/11 07:33:37;;;;;;;0.20;0.20;;;;;;;3.27;82.11;101469.25;5068796;28;20040;-89
2023/12/11 07:36:04;;;;;;;0.20;0.20;;;;;;;3.38;81.51;101496.47;5075538;28;20119;-90
2023/12/11 07:38:30;;;;;;;0.20;0.20;;;;;;;3.47;82.07;101490.47;5040696;28;20029;-90
2023/12/11 07:40:56;;;;;;;0.20;0.20;;;;;;;3.51;81.24;101492.13;5055046;28;20033;-90
2023/12/11 07:43:22;;;;;;;0.20;0.20;;;;;;;3.31;81.43;101482.00;5070385;23;20085;-87
2023/12/11 07:45:47;;;;;;;0.20;0.20;;;;;;;3.33;81.90;101492.22;5004967;28;20025;-90
2023/12/11 07:48:13;;;;;;;0.20;0.20;;;;;;;3.42;82.65;101476.81;5009779;28;20041;-92
2023/12/11 07:50:39;;;;;;;0.20;0.20;;;;;;;3.55;82.66;101478.47;5015157;28;20026;-91
2023/12/11 07:53:05;;;;;;;0.20;0.20;;;;;;;3.50;82.40;101441.81;4993233;28;20141;-92
2023/12/11 07:55:30;;;;;;;0.20;0.20;;;;;;;3.76;82.01;101467.22;5010064;28;20025;-93
2023/12/11 07:57:56;;;;;;;0.20;0.20;;;;;;;3.87;81.77;101474.81;4996939;28;20061;-91
2023/12/11 08:00:21;;;;;;;0.20;0.20;;;;;;;3.91;81.48;101466.25;4993929;28;20064;-90
2023/12/11 08:02:48;;;;;;;0.20;0.20;;;;;;;3.89;81.40;101448.34;4988203;28;20034;-89
2023/12/11 08:05:13;;;;;;;0.15;0.15;;;;;;;4.04;80.89;101455.06;5003424;28;20527;-86
2023/12/11 08:07:39;;;;;;;0.20;0.20;;;;;;;4.17;80.71;101454.06;5015709;28;20050;-89
2023/12/11 08:10:05;;;;;;;0.20;0.20;;;;;;;4.25;80.06;101457.41;5001875;28;20026;-93
2023/12/11 08:12:32;;;;;;;0.20;0.20;;;;;;;4.34;79.87;101445.41;4986569;28;20026;-94
2023/12/11 08:14:57;;;;;;;0.20;0.20;;;;;;;4.26;79.61;101430.09;5006072;28;20053;-91
2023/12/11 08:17:23;;;;;;;0.20;0.20;;;;;;;4.37;79.54;101435.09;5068089;23;20050;-92
2023/12/11 08:19:49;;;;;;;0.20;0.20;;;;;;;4.41;78.88;101447.00;4993407;28;20026;-95
2023/12/11 08:22:15;;;;;;;0.20;0.20;;;;;;;4.54;79.08;101443.47;4984394;28;20061;-89
2023/12/11 08:24:40;;;;;;;0.20;0.20;;;;;;;4.49;77.63;101425.56;4977780;28;20069;-90
2023/12/11 08:27:07;;;;;;;0.20;0.20;;;;;;;4.54;78.30;101438.34;4980731;28;20547;-93
2023/12/11 08:29:36;;;;;;;0.20;0.20;;;;;;;4.76;78.41;101454.31;4987685;28;20022;-93
2023/12/11 08:32:05;;;;;;;0.20;0.20;;;;;;;4.85;77.55;101456.78;4978585;28;20034;-92
2023/12/11 08:34:30;;;;;;;0.20;0.20;;;;;;;4.86;77.20;101456.75;4993580;28;20445;-91
2023/12/11 08:36:56;;;;;;;0.20;0.20;;;;;;;4.91;77.05;101461.81;5016483;23;20120;-92
2023/12/11 08:39:22;;;;;;;0.20;0.20;;;;;;;4.92;77.40;101462.66;5005832;28;20514;-89
2023/12/11 08:41:48;;;;;;;0.20;0.20;;;;;;;5.08;77.08;101457.31;4968596;28;20031;-92
2023/12/11 08:44:14;;;;;;;0.20;0.20;;;;;;;5.07;77.26;101455.63;4980432;28;20030;-86
2023/12/11 08:46:40;;;;;;;0.20;0.20;;;;;;;5.06;76.53;101422.31;4998012;28;20028;-84
2023/12/11 08:49:05;;;;;;;0.20;0.20;;;;;;;5.30;76.17;101463.00;4996726;28;20034;-89
2023/12/11 08:51:32;;;;;;;0.20;0.20;;;;;;;5.16;76.30;101436.72;4994068;28;20034;-92
2023/12/11 08:53:58;;;;;;;0.20;0.20;;;;;;;5.75;78.92;101448.66;4970727;28;20054;-93
2023/12/11 08:56:23;;;;;;;0.20;0.20;;;;;;;6.06;76.80;101449.91;4976056;28;20500;-85
2023/12/11 08:58:50;;;;;;;0.20;0.20;;;;;;;6.35;75.12;101449.38;4986984;28;20102;-89
2023/12/11 09:01:16;;;;;;;0.20;0.20;;;;;;;6.39;73.33;101444.19;4978559;28;20030;-89
2023/12/11 09:03:44;;;;;;;0.20;0.20;;;;;;;6.67;73.71;101456.50;4990318;28;20038;-90
2023/12/11 09:06:10;;;;;;;0.20;0.20;;;;;;;6.85;71.97;101449.25;4981639;28;20065;-92
2023/12/11 09:08:35;;;;;;;0.20;0.20;;;;;;;6.76;70.99;101435.72;4984729;28;20037;-90
2023/12/11 09:11:01;;;;;;;0.20;0.20;;;;;;;6.50;71.65;101408.00;4997026;28;20034;-88
2023/12/11 09:13:26;;;;;;;0.20;0.20;;;;;;;6.59;72.04;101415.53;4981397;28;20062;-86
2023/12/11 09:15:52;;;;;;;0.20;0.20;;;;;;;6.54;71.74;101397.59;4992999;28;20072;-85
2023/12/11 09:18:17;;;;;;;0.20;0.20;;;;;;;6.66;71.96;101409.34;4975623;28;20039;-90
2023/12/11 09:20:43;;;;;;;0.20;0.20;;;;;;;6.75;72.07;101405.75;4988179;28;20561;-90
2023/12/11 09:23:09;;;;;;;0.20;0.20;;;;;;;6.87;72.40;101408.06;4994053;28;20035;-91
2023/12/11 09:25:36;;;;;;;0.20;0.20;;;;;;;6.94;71.50;101404.50;4994639;28;20479;-90
2023/12/11 09:28:02;;;;;;;0.20;0.20;;;;;;;7.00;72.38;101385.53;4987834;28;20023;-82
2023/12/11 09:30:28;;;;;;;0.20;0.20;;;;;;;6.99;71.58;101371.81;4970488;28;20121;-88
2023/12/11 09:32:54;;;;;;;0.20;0.20;;;;;;;7.21;72.21;101377.31;4990806;28;20094;-93
2023/12/11 09:35:19;;;;;;;0.20;0.20;;;;;;;7.40;71.67;101373.44;4968044;28;20448;-89
2023/12/11 09:37:48;;;;;;;0.10;0.10;;;;;;;7.44;71.74;101366.47;4970086;28;20055;-89
2023/12/11 09:40:14;;;;;;;0.20;0.20;;;;;;;7.46;71.31;101364.69;4982915;28;20031;-91
2023/12/11 09:42:41;;;;;;;0.20;0.20;;;;;;;7.69;71.63;101367.56;4982234;28;20026;-91
2023/12/11 09:45:08;;;;;;;0.20;0.20;;;;;;;7.84;70.50;101360.31;4982399;28;20135;-91
2023/12/11 09:47:40;;;;;;;0.20;0.20;;;;;;;7.92;70.30;101358.38;4988530;28;20101;-90
2023/12/11 09:50:08;;;;;;;0.20;0.20;;;;;;;8.32;70.69;101345.28;4983750;28;20046;-92
2023/12/11 09:52:43;;;;;;;0.20;0.20;;;;;;;8.42;69.59;101344.16;4993807;28;20551;-90
2023/12/11 09:55:09;;;;;;;0.20;0.20;;;;;;;8.45;68.53;101323.44;5063582;23;20058;-92
2023/12/11 09:57:36;;;;;;;0.20;0.20;;;;;;;8.57;68.05;101320.50;5034845;28;20045;-91
2023/12/11 10:00:03;;;;;;;0.20;0.20;;;;;;;8.42;68.61;101296.91;5029013;28;20041;-91
2023/12/11 10:02:28;;;;;;;0.10;0.10;;;;;;;8.51;67.85;101331.00;5029786;28;20639;-86
2023/12/11 10:05:04;;;;;;;0.20;0.20;;;;;;;8.40;68.58;101320.16;5050125;28;20050;-88
2023/12/11 10:07:31;;;;;;;0.20;0.20;;;;;;;8.53;68.83;101336.09;5029634;28;20017;-90
2023/12/11 10:09:56;;;;;;;0.10;0.10;;;;;;;8.50;67.67;101331.88;5019675;28;20037;-86
2023/12/11 10:12:25;;;;;;;0.10;0.10;;;;;;;8.47;67.56;101333.72;5028128;28;20026;-83
2023/12/11 10:15:03;;;;;;;0.20;0.20;;;;;;;8.62;67.55;101336.69;5008877;28;20543;-87
2023/12/11 10:17:31;;;;;;;0.20;0.20;;;;;;;8.71;66.81;101332.97;5020866;28;20026;-85
2023/12/11 10:19:56;;;;;;;0.20;0.20;;;;;;;8.88;66.80;101322.16;5027627;28;20132;-83
2023/12/11 10:22:29;;;;;;;0.20;0.20;;;;;;;8.80;66.04;101304.34;5020559;28;20101;-82
2023/12/11 10:24:55;;;;;;;0.20;0.20;;;;;;;8.99;65.81;101314.94;5011007;28;20523;-84
2023/12/11 10:27:27;;;;;;;0.20;0.20;;;;;;;9.04;65.55;101299.28;5032904;28;20036;-89
2023/12/11 10:30:12;;;;;;;0.20;0.20;;;;;;;9.16;65.82;101288.59;5012194;28;20029;-89
2023/12/11 10:32:38;;;;;;;0.20;0.20;;;;;;;9.27;64.81;101294.25;5026818;28;20061;-91
2023/12/11 10:35:05;;;;;;;0.20;0.20;;;;;;;9.28;65.86;101297.66;5045405;28;20033;-85
2023/12/11 10:37:31;;;;;;;0.10;0.10;;;;;;;9.31;65.05;101306.16;5014852;28;20112;-86
2023/12/11 10:39:57;;;;;;;0.10;0.10;;;;;;;9.35;65.23;101305.16;5010611;28;20048;-85
2023/12/11 10:42:23;;;;;;;0.20;0.20;;;;;;;9.41;64.75;101296.34;5025134;28;20117;-86
2023/12/11 10:44:49;;;;;;;0.20;0.20;;;;;;;9.53;65.43;101295.09;4996913;28;20029;-91
2023/12/11 10:47:15;;;;;;;0.15;0.15;;;;;;;9.50;65.77;101270.22;5030325;28;20036;-81
2023/12/11 10:49:40;;;;;;;0.10;0.10;;;;;;;9.83;65.43;101278.53;5025730;28;20050;-82
2023/12/11 10:52:06;;;;;;;0.10;0.10;;;;;;;9.94;62.94;101273.00;5025606;28;20033;-92
2023/12/11 10:54:35;;;;;;;0.10;0.10;;;;;;;9.89;62.94;101262.81;5010217;28;20058;-90
2023/12/11 10:57:03;;;;;;;0.10;0.10;;;;;;;9.93;62.41;101256.66;4967388;28;20034;-85
2023/12/11 10:59:29;;;;;;;0.20;0.20;;;;;;;9.97;62.50;101258.22;5001768;28;20030;-86
2023/12/11 11:01:55;;;;;;;0.20;0.20;;;;;;;10.01;62.70;101254.63;4991756;28;20033;-89
2023/12/11 11:04:21;;;;;;;0.20;0.20;;;;;;;10.05;61.99;101253.63;4993417;28;20037;-83
2023/12/11 11:06:55;;;;;;;0.20;0.20;;;;;;;10.16;62.35;101239.44;4992947;28;20076;-89
2023/12/11 11:09:33;;;;;;;0.20;0.20;;;;;;;10.17;61.19;101210.09;4993631;28;20025;-87
2023/12/11 11:12:13;;;;;;;0.20;0.20;;;;;;;10.40;61.32;101215.25;4991776;28;20097;-89
2023/12/11 11:14:48;;;;;;;0.20;0.20;;;;;;;10.34;60.73;101212.94;4975862;28;20080;-81
2023/12/11 11:17:16;;;;;;;0.20;0.20;;;;;;;10.43;61.40;101217.75;5007331;28;20041;-84
2023/12/11 11:20:07;;;;;;;0.10;0.10;;;;;;;10.37;60.45;101212.81;5009144;28;20034;-88
2023/12/11 11:22:34;;;;;;;0.10;0.10;;;;;;;10.23;60.88;101200.41;5008730;28;20046;-88
2023/12/11 11:25:32;;;;;;;0.20;0.20;;;;;;;10.28;61.53;101203.66;5006143;28;20034;-92
2023/12/11 11:27:57;;;;;;;0.10;0.10;;;;;;;10.33;60.67;101190.56;4992540;28;20496;-93
2023/12/11 11:30:52;;;;;;;0.20;0.20;;;;;;;10.52;60.74;101190.66;4989156;28;20120;-84